Time;durP1;ratioP1;P1;durP2;ratioP2;P2;SDS_P1;SDS_P2;PMS_P1;PMS_P2;Temp;Humidity;BMP_temperature;BMP_pressure;BME280_temperature;BME280_humidity;BME280_pressure;Samples;Min_cycle;Max_cycle;Signal;HPM_P1;HPM_P2
2022/07/21 00:01:11;;;;;;;4.50;3.73;;;28.50;29.60;;;;;;5051861;28;20451;-43
2022/07/21 00:04:11;;;;;;;5.83;3.77;;;28.50;29.60;;;;;;5051746;28;20442;-43
2022/07/21 00:06:48;;;;;;;4.70;3.37;;;28.50;30.00;;;;;;5050804;28;20220;-42
2022/07/21 00:09:15;;;;;;;5.27;3.40;;;28.50;30.00;;;;;;5051948;28;20431;-43
2022/07/21 00:11:41;;;;;;;4.00;3.40;;;28.30;30.60;;;;;;5051998;28;20418;-43
2022/07/21 00:14:09;;;;;;;5.27;3.50;;;28.30;30.90;;;;;;5051967;28;20463;-42
2022/07/21 00:16:35;;;;;;;4.63;3.20;;;28.20;30.80;;;;;;5051836;28;20427;-43
2022/07/21 00:19:01;;;;;;;3.53;3.00;;;28.20;30.80;;;;;;5052019;28;20407;-43
2022/07/21 00:21:28;;;;;;;4.20;3.10;;;28.10;30.80;;;;;;5051565;28;20463;-43
2022/07/21 00:23:54;;;;;;;4.57;3.60;;;28.10;30.90;;;;;;5051612;28;20430;-43
2022/07/21 00:26:20;;;;;;;5.80;3.80;;;28.10;31.30;;;;;;5051672;28;20403;-43
2022/07/21 00:28:45;;;;;;;5.00;3.47;;;28.10;31.20;;;;;;5051846;28;20533;-43
2022/07/21 00:31:11;;;;;;;3.70;2.80;;;28.00;31.40;;;;;;5051687;28;20501;-43
2022/07/21 00:33:37;;;;;;;6.03;5.53;;;28.00;31.40;;;;;;5051801;28;20206;-45
2022/07/21 00:36:03;;;;;;;4.40;3.20;;;27.90;30.80;;;;;;5051261;28;20185;-43
2022/07/21 00:38:29;;;;;;;5.97;3.60;;;27.90;30.80;;;;;;5051896;28;20177;-42
2022/07/21 00:40:55;;;;;;;5.60;3.30;;;27.90;30.80;;;;;;5051438;28;20871;-43
2022/07/21 00:43:21;;;;;;;4.83;3.67;;;27.90;30.90;;;;;;5051509;28;20186;-43
2022/07/21 00:45:47;;;;;;;4.27;3.20;;;27.90;30.70;;;;;;5051361;28;20420;-43
2022/07/21 00:48:13;;;;;;;3.70;3.20;;;27.80;30.90;;;;;;5051744;28;20737;-42
2022/07/21 00:50:39;;;;;;;6.90;3.10;;;27.90;31.00;;;;;;5051338;28;20939;-43
2022/07/21 00:53:05;;;;;;;3.77;3.13;;;27.80;31.00;;;;;;5051261;28;20303;-43
2022/07/21 00:55:31;;;;;;;3.73;2.93;;;27.80;31.20;;;;;;5051442;28;20447;-42
2022/07/21 00:57:57;;;;;;;7.20;3.47;;;27.70;31.10;;;;;;5051262;28;20411;-43
2022/07/21 01:00:27;;;;;;;4.07;3.17;;;27.70;31.50;;;;;;5051448;28;20736;-42
2022/07/21 01:02:55;;;;;;;4.73;3.80;;;27.70;31.40;;;;;;5051419;28;20462;-43
2022/07/21 01:05:21;;;;;;;6.77;3.23;;;27.70;31.30;;;;;;5051322;28;20408;-42
2022/07/21 01:07:50;;;;;;;4.10;3.23;;;27.60;31.60;;;;;;5053817;22;20586;-44
2022/07/21 01:10:18;;;;;;;3.43;2.93;;;27.60;31.70;;;;;;5052827;28;20891;-44
2022/07/21 01:12:45;;;;;;;5.40;3.43;;;27.60;32.00;;;;;;5054933;28;21005;-44
2022/07/21 01:15:12;;;;;;;5.43;3.10;;;27.50;32.40;;;;;;5054652;28;20823;-44
2022/07/21 01:17:38;;;;;;;5.03;3.60;;;27.40;32.00;;;;;;5054633;28;20432;-45
2022/07/21 01:20:07;;;;;;;5.47;4.30;;;27.30;32.10;;;;;;5054728;28;20407;-44
2022/07/21 01:22:35;;;;;;;4.13;2.87;;;27.30;32.20;;;;;;5054654;28;20479;-44
2022/07/21 01:25:01;;;;;;;4.17;3.30;;;27.30;32.50;;;;;;5054784;28;20403;-44
2022/07/21 01:27:27;;;;;;;4.10;3.20;;;27.30;32.30;;;;;;5054339;28;20826;-44
2022/07/21 01:29:56;;;;;;;3.93;3.07;;;27.20;32.70;;;;;;5054570;28;20400;-44
2022/07/21 01:32:22;;;;;;;7.37;3.60;;;27.20;32.40;;;;;;5054578;28;20455;-44
2022/07/21 01:34:48;;;;;;;5.67;3.43;;;27.10;32.20;;;;;;5054434;28;20411;-45
2022/07/21 01:37:15;;;;;;;4.77;3.57;;;27.10;32.40;;;;;;5054134;28;20497;-44
2022/07/21 01:42:25;;;;;;;5.77;3.53;;;27.10;32.20;;;;;;5054413;28;20489;-44
2022/07/21 01:44:51;;;;;;;3.80;3.23;;;27.10;32.30;;;;;;5054518;28;20404;-44
2022/07/21 01:47:21;;;;;;;4.20;3.37;;;27.00;32.80;;;;;;5053988;28;20200;-44
2022/07/21 01:49:47;;;;;;;3.80;3.00;;;27.00;32.40;;;;;;5054076;28;20645;-44
2022/07/21 01:52:13;;;;;;;4.37;3.30;;;27.00;32.90;;;;;;5054057;28;20493;-44
2022/07/21 01:54:38;;;;;;;6.67;3.30;;;26.90;32.20;;;;;;5054122;28;20208;-44
2022/07/21 01:57:04;;;;;;;5.80;3.57;;;26.80;32.20;;;;;;5053726;28;20276;-44
2022/07/21 01:59:30;;;;;;;5.07;2.90;;;26.80;32.40;;;;;;5054019;28;20239;-44
2022/07/21 02:01:56;;;;;;;5.90;3.80;;;26.80;32.50;;;;;;5053834;28;20197;-44
2022/07/21 02:04:21;;;;;;;7.13;3.60;;;26.70;32.40;;;;;;5053840;28;20240;-44
2022/07/21 02:06:47;;;;;;;4.20;3.40;;;26.70;32.10;;;;;;5053487;28;20205;-44
2022/07/21 02:09:13;;;;;;;4.43;3.50;;;26.70;32.00;;;;;;5053881;28;20169;-44
2022/07/21 02:11:39;;;;;;;6.27;3.40;;;26.70;32.50;;;;;;5054095;28;20800;-44
2022/07/21 02:14:05;;;;;;;4.70;3.60;;;26.70;32.40;;;;;;5053780;28;20168;-44
2022/07/21 02:16:31;;;;;;;5.20;3.57;;;26.70;32.30;;;;;;5053455;28;20556;-44
2022/07/21 02:18:57;;;;;;;3.90;3.27;;;26.60;32.30;;;;;;5052741;28;20212;-44
2022/07/21 02:21:23;;;;;;;4.80;2.83;;;26.70;32.40;;;;;;5053537;28;20462;-44
2022/07/21 02:23:49;;;;;;;4.33;3.00;;;26.70;32.70;;;;;;5053534;28;20412;-44
2022/07/21 02:26:14;;;;;;;7.43;3.67;;;26.70;32.80;;;;;;5053258;28;20456;-44
2022/07/21 02:28:40;;;;;;;5.70;3.57;;;26.60;32.70;;;;;;5053424;28;20172;-44
2022/07/21 02:31:07;;;;;;;4.90;3.67;;;26.60;32.70;;;;;;5053420;28;20181;-44
2022/07/21 02:33:34;;;;;;;6.07;3.67;;;26.60;32.90;;;;;;5053216;28;20199;-44
2022/07/21 02:36:00;;;;;;;6.73;3.40;;;26.60;33.00;;;;;;5053049;28;20435;-44
2022/07/21 02:38:26;;;;;;;5.03;3.43;;;26.50;33.00;;;;;;5053251;28;20558;-44
2022/07/21 02:40:51;;;;;;;3.87;3.47;;;26.50;33.30;;;;;;5053094;28;20416;-44
2022/07/21 02:43:17;;;;;;;7.67;3.33;;;26.40;33.20;;;;;;5053265;28;20416;-43
2022/07/21 02:45:44;;;;;;;6.13;3.10;;;26.40;33.30;;;;;;5052953;28;20659;-44
2022/07/21 02:48:13;;;;;;;3.60;2.70;;;26.40;33.50;;;;;;5053133;28;20235;-43
2022/07/21 02:50:42;;;;;;;7.20;3.20;;;26.30;33.50;;;;;;5053261;28;20431;-44
2022/07/21 02:53:10;;;;;;;3.30;2.73;;;26.40;33.60;;;;;;5052970;28;20415;-44
2022/07/21 02:55:37;;;;;;;7.20;3.83;;;26.30;33.60;;;;;;5052840;28;20416;-43
2022/07/21 02:58:14;;;;;;;4.93;3.70;;;26.30;33.70;;;;;;5052828;28;20923;-44
2022/07/21 03:00:47;;;;;;;5.53;3.87;;;26.30;33.80;;;;;;5052989;28;20399;-44
2022/07/21 03:03:13;;;;;;;9.40;4.10;;;26.20;34.00;;;;;;5053076;28;20416;-44
2022/07/21 03:05:40;;;;;;;5.67;3.57;;;26.20;34.10;;;;;;5052595;28;20407;-44
2022/07/21 03:08:07;;;;;;;5.20;3.70;;;26.20;34.10;;;;;;5052544;28;20225;-44
2022/07/21 03:10:34;;;;;;;8.33;3.60;;;26.20;34.50;;;;;;5052905;28;20412;-44
2022/07/21 03:13:01;;;;;;;4.20;3.30;;;26.20;34.50;;;;;;5052632;28;20400;-44
2022/07/21 03:15:27;;;;;;;4.60;3.53;;;26.60;34.60;;;;;;5052628;28;20414;-44
2022/07/21 03:17:54;;;;;;;4.20;3.03;;;26.20;34.80;;;;;;5052291;28;20450;-44
2022/07/21 03:20:23;;;;;;;4.13;3.47;;;26.20;34.80;;;;;;5052648;28;20400;-44
2022/07/21 03:22:49;;;;;;;6.97;4.10;;;26.20;34.60;;;;;;5052495;28;20950;-44
2022/07/21 03:25:16;;;;;;;5.17;4.03;;;26.20;34.80;;;;;;5052414;28;20593;-44
2022/07/21 03:27:42;;;;;;;10.90;3.53;;;26.20;34.40;;;;;;5052011;28;20424;-44
2022/07/21 03:30:10;;;;;;;8.03;3.83;;;26.20;34.30;;;;;;5052584;28;20452;-44
2022/07/21 03:32:36;;;;;;;4.00;3.53;;;26.30;34.60;;;;;;5052318;28;20906;-44
2022/07/21 03:35:03;;;;;;;5.97;3.90;;;26.30;35.00;;;;;;5052266;28;20404;-44
2022/07/21 03:37:29;;;;;;;6.10;4.30;;;26.30;34.50;;;;;;5051911;28;20196;-44
2022/07/21 03:39:55;;;;;;;4.27;3.43;;;26.30;34.40;;;;;;5052609;28;20407;-44
2022/07/21 03:42:21;;;;;;;7.93;4.20;;;26.30;34.80;;;;;;5052003;28;20977;-43
2022/07/21 03:44:47;;;;;;;7.73;5.30;;;26.30;35.20;;;;;;5052082;28;20450;-44
2022/07/21 03:47:13;;;;;;;6.33;4.47;;;26.30;34.90;;;;;;5051772;28;20493;-44
2022/07/21 03:49:39;;;;;;;8.80;5.00;;;26.30;35.00;;;;;;5052016;28;20423;-45
2022/07/21 03:52:05;;;;;;;6.60;4.80;;;26.30;34.70;;;;;;5051903;28;20749;-44
2022/07/21 03:54:31;;;;;;;10.40;5.60;;;26.30;34.90;;;;;;5051959;28;20177;-44
2022/07/21 03:56:56;;;;;;;8.70;5.63;;;26.40;35.00;;;;;;5051848;28;20204;-44
2022/07/21 03:59:22;;;;;;;10.53;6.50;;;26.40;35.10;;;;;;5052237;28;20195;-44
2022/07/21 04:01:48;;;;;;;7.43;5.40;;;26.30;35.10;;;;;;5051843;28;20192;-43
2022/07/21 04:04:14;;;;;;;8.30;6.30;;;26.40;35.50;;;;;;5033974;28;20276;-44
2022/07/21 04:06:39;;;;;;;7.37;6.23;;;26.40;35.20;;;;;;5033599;28;20212;-44
2022/07/21 04:09:05;;;;;;;10.67;6.77;;;26.40;35.10;;;;;;5051908;28;20162;-44
2022/07/21 04:11:31;;;;;;;11.03;7.00;;;26.40;35.40;;;;;;5051768;28;20165;-44
2022/07/21 04:13:58;;;;;;;10.03;6.00;;;26.40;35.40;;;;;;5051830;28;20176;-44
2022/07/21 04:16:24;;;;;;;10.40;6.27;;;26.40;35.60;;;;;;5051387;28;20442;-44
2022/07/21 04:18:50;;;;;;;13.00;6.70;;;26.40;35.60;;;;;;5051705;28;20408;-44
2022/07/21 04:21:15;;;;;;;7.17;5.57;;;26.40;35.60;;;;;;5051661;28;20773;-45
2022/07/21 04:23:41;;;;;;;10.37;7.23;;;26.40;35.70;;;;;;5051728;28;20169;-44
2022/07/21 04:26:07;;;;;;;9.00;6.97;;;26.40;35.80;;;;;;5051286;28;20195;-44
2022/07/21 04:28:33;;;;;;;10.37;6.93;;;26.40;35.50;;;;;;5051963;28;20169;-44
2022/07/21 04:30:58;;;;;;;10.33;5.90;;;26.40;36.00;;;;;;5051642;28;20188;-44
2022/07/21 04:33:24;;;;;;;10.93;6.30;;;26.40;36.80;;;;;;5051789;28;20628;-44
2022/07/21 04:35:50;;;;;;;9.00;5.60;;;26.40;36.10;;;;;;5051489;28;20161;-44
2022/07/21 04:38:17;;;;;;;7.50;6.30;;;26.40;36.30;;;;;;5051641;28;20408;-44
2022/07/21 04:40:43;;;;;;;10.73;6.60;;;26.40;36.40;;;;;;5051616;28;20169;-44
2022/07/21 04:43:09;;;;;;;14.30;8.00;;;26.40;36.80;;;;;;5053928;28;20407;-44
2022/07/21 04:45:35;;;;;;;7.57;5.40;;;26.40;36.60;;;;;;5055326;28;20299;-44
2022/07/21 04:48:00;;;;;;;8.47;6.10;;;26.50;36.30;;;;;;5055409;28;20193;-44
2022/07/21 04:50:27;;;;;;;8.73;6.10;;;26.60;36.30;;;;;;5055580;28;20532;-44
2022/07/21 04:52:54;;;;;;;12.53;6.20;;;26.70;36.30;;;;;;5055258;28;20249;-44
2022/07/21 04:55:20;;;;;;;9.40;7.17;;;26.70;36.50;;;;;;5055169;28;20396;-44
2022/07/21 04:57:49;;;;;;;11.03;7.83;;;26.80;36.20;;;;;;5054853;28;20931;-44
2022/07/21 05:00:17;;;;;;;10.93;6.97;;;27.00;36.50;;;;;;5054903;28;20445;-44
2022/07/21 05:02:44;;;;;;;13.90;7.87;;;27.10;36.50;;;;;;5055011;28;20446;-44
2022/07/21 05:05:10;;;;;;;9.00;6.47;;;27.20;36.50;;;;;;5054915;28;20798;-45
2022/07/21 05:07:36;;;;;;;11.80;7.40;;;27.30;36.70;;;;;;5054597;28;20455;-44
2022/07/21 05:10:07;;;;;;;8.93;7.00;;;27.40;36.90;;;;;;5054819;28;20930;-44
2022/07/21 05:12:33;;;;;;;10.93;6.50;;;27.50;37.40;;;;;;5054828;28;20891;-44
2022/07/21 05:14:59;;;;;;;11.40;6.40;;;27.60;36.70;;;;;;5054912;28;20874;-44
2022/07/21 05:17:24;;;;;;;13.50;6.53;;;27.80;36.80;;;;;;5054511;28;20919;-44
2022/07/21 05:19:50;;;;;;;7.70;5.70;;;27.80;36.70;;;;;;5054743;28;20469;-45
2022/07/21 05:22:19;;;;;;;9.10;6.50;;;27.90;36.50;;;;;;5054826;28;20787;-44
2022/07/21 05:24:45;;;;;;;8.00;5.87;;;28.10;36.70;;;;;;5054889;28;20179;-44
2022/07/21 05:27:11;;;;;;;8.50;6.60;;;28.20;36.50;;;;;;5054478;28;20519;-44
2022/07/21 05:29:37;;;;;;;6.73;5.77;;;28.30;36.30;;;;;;5054463;28;20245;-44
2022/07/21 05:32:03;;;;;;;8.97;6.60;;;28.40;36.00;;;;;;5054485;28;20180;-45
2022/07/21 05:34:29;;;;;;;7.67;5.60;;;28.50;35.90;;;;;;5054424;28;20685;-44
2022/07/21 05:36:55;;;;;;;8.00;5.40;;;28.60;35.60;;;;;;5054001;28;20431;-45
2022/07/21 05:39:21;;;;;;;7.07;5.93;;;28.70;36.40;;;;;;5054399;28;20172;-44
2022/07/21 05:41:46;;;;;;;7.73;6.03;;;28.80;35.90;;;;;;5054430;28;20468;-43
2022/07/21 05:44:12;;;;;;;9.97;6.23;;;29.00;36.20;;;;;;5054141;28;20170;-44
2022/07/21 05:46:38;;;;;;;7.10;4.80;;;29.00;35.70;;;;;;5053957;28;20342;-44
2022/07/21 05:49:04;;;;;;;6.70;5.83;;;29.20;35.70;;;;;;5054098;28;20230;-44
2022/07/21 05:51:30;;;;;;;9.53;5.30;;;29.30;35.30;;;;;;5054016;28;20178;-44
2022/07/21 05:53:56;;;;;;;5.87;5.10;;;29.40;35.10;;;;;;5053060;28;20825;-44
2022/07/21 05:56:21;;;;;;;5.53;4.33;;;29.50;34.90;;;;;;5053913;28;20284;-44
2022/07/21 05:58:47;;;;;;;6.50;4.87;;;29.60;34.90;;;;;;5053928;28;20181;-44
2022/07/21 06:01:13;;;;;;;14.70;5.43;;;29.80;33.60;;;;;;5053764;28;20189;-45
2022/07/21 06:03:42;;;;;;;6.30;5.17;;;29.80;34.00;;;;;;5054179;28;20492;-44
2022/07/21 06:06:08;;;;;;;8.47;5.13;;;30.00;34.10;;;;;;5053251;28;20946;-44
2022/07/21 06:08:36;;;;;;;7.53;5.03;;;30.10;33.90;;;;;;5053772;28;20760;-44
2022/07/21 06:11:02;;;;;;;6.30;5.40;;;30.20;34.00;;;;;;5053726;28;20407;-44
2022/07/21 06:13:28;;;;;;;6.23;5.07;;;30.30;33.90;;;;;;5053769;28;20811;-44
2022/07/21 06:15:54;;;;;;;8.47;5.60;;;30.40;33.70;;;;;;5053376;28;20834;-44
2022/07/21 06:18:19;;;;;;;6.60;5.47;;;30.50;33.40;;;;;;5053601;28;20235;-45
2022/07/21 06:20:45;;;;;;;5.80;5.20;;;30.60;32.10;;;;;;5053758;28;20644;-44
2022/07/21 06:23:11;;;;;;;7.20;6.00;;;30.70;31.90;;;;;;5053385;28;20207;-44
2022/07/21 06:25:37;;;;;;;7.00;6.17;;;30.70;31.90;;;;;;5053290;28;20182;-44
2022/07/21 06:28:03;;;;;;;7.80;6.97;;;30.80;32.00;;;;;;5053198;28;20641;-44
2022/07/21 06:30:29;;;;;;;6.53;5.43;;;30.70;32.30;;;;;;5053351;28;20466;-43
2022/07/21 06:32:54;;;;;;;5.70;4.67;;;30.80;32.10;;;;;;5053368;28;20407;-43
2022/07/21 06:35:20;;;;;;;6.27;5.63;;;30.80;32.30;;;;;;5053441;28;20250;-43
2022/07/21 06:37:46;;;;;;;7.87;5.87;;;30.90;32.40;;;;;;5052985;28;20197;-43
2022/07/21 06:40:12;;;;;;;6.60;5.37;;;30.90;32.00;;;;;;5053107;28;20502;-44
2022/07/21 06:42:38;;;;;;;12.90;6.20;;;31.00;32.60;;;;;;5053127;28;20572;-43
2022/07/21 06:45:05;;;;;;;22.27;6.63;;;31.20;32.00;;;;;;5053186;28;20755;-43
2022/07/21 06:47:31;;;;;;;6.23;5.30;;;31.30;31.70;;;;;;5052781;28;20434;-44
2022/07/21 06:50:02;;;;;;;5.63;5.10;;;31.40;31.70;;;;;;5052955;28;20421;-44
2022/07/21 06:52:31;;;;;;;6.57;5.07;;;31.50;31.90;;;;;;5053318;28;20181;-44
2022/07/21 06:54:57;;;;;;;6.73;5.00;;;31.70;31.80;;;;;;5052832;28;20418;-44
2022/07/21 06:57:23;;;;;;;7.90;5.60;;;31.80;28.80;;;;;;5052782;28;20488;-44
2022/07/21 06:59:49;;;;;;;5.93;4.83;;;31.80;29.00;;;;;;5052871;28;20410;-45
2022/07/21 07:02:15;;;;;;;7.30;5.63;;;31.80;30.10;;;;;;5052904;28;20443;-45
2022/07/21 07:04:41;;;;;;;7.70;5.43;;;31.90;30.50;;;;;;5052428;28;20231;-45
2022/07/21 07:07:07;;;;;;;6.53;5.83;;;31.90;30.40;;;;;;5052205;28;20443;-45
2022/07/21 07:09:33;;;;;;;5.83;5.13;;;32.00;30.10;;;;;;5052544;28;20412;-45
2022/07/21 07:12:03;;;;;;;9.57;5.33;;;32.10;30.70;;;;;;5052525;28;20407;-45
2022/07/21 07:14:33;;;;;;;6.70;5.53;;;32.10;30.50;;;;;;5052863;28;20168;-44
2022/07/21 07:17:01;;;;;;;7.07;6.37;;;32.20;30.50;;;;;;5052425;28;20432;-44
2022/07/21 07:19:27;;;;;;;5.83;4.80;;;32.20;29.90;;;;;;5041550;22;20485;-44
2022/07/21 07:21:53;;;;;;;7.43;6.20;;;32.30;29.30;;;;;;5027007;28;20448;-44
2022/07/21 07:24:19;;;;;;;8.30;6.10;;;32.40;29.30;;;;;;5032348;28;20461;-44
2022/07/21 07:26:45;;;;;;;11.23;5.40;;;32.40;29.60;;;;;;5032143;28;20176;-43
2022/07/21 07:29:11;;;;;;;6.30;5.23;;;32.50;29.50;;;;;;5032261;28;20431;-45
2022/07/21 07:31:37;;;;;;;7.30;5.97;;;32.60;29.40;;;;;;5032649;28;20185;-44
2022/07/21 07:34:03;;;;;;;6.70;5.50;;;32.60;29.60;;;;;;5032303;28;20188;-44
2022/07/21 07:36:29;;;;;;;7.30;5.60;;;32.70;29.60;;;;;;5032036;28;20417;-44
2022/07/21 07:38:56;;;;;;;5.90;5.30;;;32.80;29.20;;;;;;5032390;28;20537;-45
2022/07/21 07:41:24;;;;;;;6.43;5.40;;;32.90;28.80;;;;;;5032202;28;20445;-43
2022/07/21 07:43:51;;;;;;;7.77;5.50;;;33.00;29.20;;;;;;5032365;28;20474;-44
2022/07/21 07:46:20;;;;;;;6.90;6.20;;;33.00;28.70;;;;;;5031917;28;20408;-43
2022/07/21 07:48:47;;;;;;;6.63;5.87;;;33.00;28.50;;;;;;5032063;28;20487;-43
2022/07/21 07:51:13;;;;;;;8.53;5.10;;;33.10;28.00;;;;;;5032018;28;20419;-43
2022/07/21 07:53:40;;;;;;;8.80;5.67;;;33.10;28.40;;;;;;5032054;28;20405;-44
2022/07/21 07:56:07;;;;;;;5.93;5.30;;;33.20;28.30;;;;;;5032040;28;20404;-44
2022/07/21 07:58:33;;;;;;;6.50;5.90;;;33.30;28.80;;;;;;5032248;28;20478;-44
2022/07/21 08:00:59;;;;;;;15.60;6.40;;;33.40;28.80;;;;;;5031871;28;20415;-45
2022/07/21 08:03:47;;;;;;;7.50;6.10;;;33.50;28.70;;;;;;5021537;28;20412;-44
2022/07/21 08:06:13;;;;;;;7.37;5.80;;;33.60;28.30;;;;;;5011650;28;20727;-44
2022/07/21 08:08:39;;;;;;;6.80;5.60;;;33.70;27.80;;;;;;5012200;28;20429;-42
2022/07/21 08:11:05;;;;;;;6.30;5.60;;;33.80;28.10;;;;;;5012141;28;20170;-42
2022/07/21 08:13:31;;;;;;;5.67;5.07;;;32.90;27.70;;;;;;5012229;28;20183;-43
2022/07/21 08:15:57;;;;;;;7.90;4.77;;;34.10;28.50;;;;;;5012018;28;20409;-45
2022/07/21 08:18:23;;;;;;;6.20;5.50;;;34.20;28.10;;;;;;5015231;28;20441;-45
2022/07/21 08:20:49;;;;;;;5.63;5.10;;;34.30;27.40;;;;;;5016213;28;20170;-43
2022/07/21 08:23:15;;;;;;;8.37;5.43;;;34.30;28.00;;;;;;5016222;28;20455;-43
2022/07/21 08:25:41;;;;;;;5.80;4.50;;;34.40;27.30;;;;;;5015959;28;20821;-44
2022/07/21 08:28:08;;;;;;;5.17;4.53;;;34.40;26.20;;;;;;5015907;28;20992;-44
2022/07/21 08:30:34;;;;;;;5.90;5.30;;;34.40;26.00;;;;;;5015944;28;20933;-44
2022/07/21 08:33:00;;;;;;;6.57;5.67;;;34.40;26.30;;;;;;5015742;28;20423;-44
2022/07/21 08:35:27;;;;;;;10.10;5.60;;;34.40;26.00;;;;;;5016059;28;20407;-44
2022/07/21 08:38:01;;;;;;;6.77;5.20;;;34.50;26.10;;;;;;5015691;28;20428;-44
2022/07/21 08:40:29;;;;;;;5.80;5.20;;;34.50;26.70;;;;;;5015787;28;20509;-44
2022/07/21 08:42:55;;;;;;;5.93;5.33;;;34.60;26.00;;;;;;5015948;28;20449;-45
2022/07/21 08:45:22;;;;;;;7.00;5.57;;;34.70;26.10;;;;;;5015585;28;20404;-46
2022/07/21 08:47:55;;;;;;;7.83;5.87;;;34.80;26.20;;;;;;5015717;28;20472;-45
2022/07/21 08:50:26;;;;;;;7.63;5.50;;;34.90;26.30;;;;;;5015615;28;20409;-45
2022/07/21 08:52:52;;;;;;;5.83;4.90;;;34.90;25.80;;;;;;5015549;28;20421;-43
2022/07/21 08:55:18;;;;;;;6.23;5.33;;;35.00;26.70;;;;;;5015401;28;20817;-44
2022/07/21 08:57:44;;;;;;;6.47;5.60;;;35.00;26.20;;;;;;5015452;28;20915;-46
2022/07/21 09:00:10;;;;;;;7.97;6.07;;;35.10;26.00;;;;;;5015687;28;20412;-46
2022/07/21 09:02:38;;;;;;;5.80;5.03;;;35.20;25.80;;;;;;5015299;28;20212;-45
2022/07/21 09:05:09;;;;;;;6.07;5.47;;;35.20;25.70;;;;;;5015370;28;20927;-46
2022/07/21 09:07:54;;;;;;;7.43;6.20;;;35.20;26.00;;;;;;5015431;28;20469;-46
2022/07/21 09:10:29;;;;;;;7.27;5.30;;;35.30;26.40;;;;;;5015169;28;20412;-45
2022/07/21 09:12:57;;;;;;;8.03;6.17;;;35.30;26.20;;;;;;5015254;28;20416;-45
2022/07/21 09:15:25;;;;;;;6.33;5.30;;;35.30;26.10;;;;;;5015227;28;20413;-45
2022/07/21 09:18:23;;;;;;;7.60;4.77;;;35.30;25.40;;;;;;5014887;28;20415;-46
2022/07/21 09:20:52;;;;;;;5.70;5.20;;;35.40;25.50;;;;;;4992242;28;20431;-46
2022/07/21 09:23:21;;;;;;;7.03;5.90;;;35.50;25.60;;;;;;5014911;28;20997;-44
2022/07/21 09:25:52;;;;;;;6.80;6.10;;;35.50;25.20;;;;;;5014936;28;20416;-44
2022/07/21 09:28:22;;;;;;;5.40;4.90;;;35.50;25.20;;;;;;5014681;28;20427;-45
2022/07/21 09:30:58;;;;;;;5.77;4.33;;;35.60;25.60;;;;;;5014839;28;20431;-45
2022/07/21 09:33:32;;;;;;;7.67;5.10;;;35.60;25.20;;;;;;5015063;28;20809;-44
2022/07/21 09:36:12;;;;;;;6.73;4.70;;;35.60;24.90;;;;;;5014572;28;20923;-44
2022/07/21 09:38:58;;;;;;;7.43;5.47;;;35.70;25.00;;;;;;5014644;28;20511;-44
2022/07/21 09:41:25;;;;;;;9.87;5.40;;;35.70;24.60;;;;;;5014631;28;20449;-44
2022/07/21 09:43:53;;;;;;;4.43;4.03;;;35.60;25.40;;;;;;5014408;28;20406;-45
2022/07/21 09:46:20;;;;;;;9.80;4.83;;;35.50;25.80;;;;;;5014543;28;20558;-43
2022/07/21 09:48:54;;;;;;;9.83;5.17;;;35.50;25.50;;;;;;5014390;28;20508;-43
2022/07/21 09:51:32;;;;;;;7.93;5.20;;;35.40;25.90;;;;;;5014341;28;20417;-44
2022/07/21 09:54:00;;;;;;;5.23;4.30;;;35.40;26.70;;;;;;5014520;28;20452;-44
2022/07/21 09:56:28;;;;;;;6.00;5.00;;;35.40;26.00;;;;;;5014384;28;20815;-45
2022/07/21 09:58:56;;;;;;;5.80;5.17;;;35.50;26.00;;;;;;5014221;28;20432;-43
2022/07/21 10:01:23;;;;;;;5.47;4.17;;;35.60;25.80;;;;;;5014396;28;20797;-44
2022/07/21 10:03:50;;;;;;;5.20;4.67;;;35.80;25.90;;;;;;5014422;28;20893;-44
2022/07/21 10:06:18;;;;;;;6.03;4.20;;;35.80;24.90;;;;;;5013906;28;20451;-44
2022/07/21 10:08:45;;;;;;;5.00;4.27;;;36.00;24.40;;;;;;5014126;28;20413;-46
2022/07/21 10:11:11;;;;;;;5.57;3.60;;;36.00;25.00;;;;;;5013923;28;21093;-46
2022/07/21 10:13:40;;;;;;;7.50;4.67;;;36.10;24.90;;;;;;5014266;28;20765;-46
2022/07/21 10:16:10;;;;;;;6.07;3.93;;;36.20;24.40;;;;;;5013886;28;20405;-45
2022/07/21 10:19:09;;;;;;;6.50;4.30;;;36.20;25.40;;;;;;5013978;28;20438;-44
2022/07/21 10:22:08;;;;;;;5.80;4.70;;;36.30;25.00;;;;;;5014083;28;20460;-44
2022/07/21 10:24:34;;;;;;;4.80;4.37;;;36.30;24.30;;;;;;5013848;28;20878;-45
2022/07/21 10:27:06;;;;;;;5.17;3.83;;;36.30;24.80;;;;;;5013527;28;20413;-46
2022/07/21 10:29:54;;;;;;;7.47;4.67;;;36.20;25.40;;;;;;5013572;28;20438;-43
2022/07/21 10:32:24;;;;;;;7.10;5.20;;;36.20;25.40;;;;;;5013592;28;20413;-45
2022/07/21 10:34:50;;;;;;;5.90;4.00;;;36.20;25.20;;;;;;5013858;28;20398;-44
2022/07/21 10:37:41;;;;;;;3.90;3.43;;;36.00;25.50;;;;;;5013314;28;20455;-44
2022/07/21 10:40:29;;;;;;;4.97;3.97;;;36.00;25.50;;;;;;5012810;28;20408;-44
2022/07/21 10:43:01;;;;;;;6.70;3.90;;;36.00;25.60;;;;;;5013398;28;20457;-42
2022/07/21 10:45:45;;;;;;;7.30;3.83;;;35.90;24.80;;;;;;5013650;28;20402;-46
2022/07/21 10:48:41;;;;;;;4.33;3.83;;;35.70;24.60;;;;;;5013235;28;20479;-46
2022/07/21 10:51:15;;;;;;;6.10;3.97;;;35.60;25.80;;;;;;5013218;28;20405;-46
2022/07/21 10:53:41;;;;;;;5.47;4.10;;;35.40;25.50;;;;;;5013418;28;20453;-44
2022/07/21 10:56:07;;;;;;;4.43;4.00;;;35.30;26.00;;;;;;5013072;28;20928;-45
2022/07/21 10:58:42;;;;;;;3.50;3.20;;;35.30;25.30;;;;;;5013464;28;20199;-44
2022/07/21 11:01:14;;;;;;;4.93;3.30;;;35.00;25.50;;;;;;5013321;28;20600;-44
2022/07/21 11:03:41;;;;;;;4.37;3.50;;;34.90;24.70;;;;;;5013384;28;20453;-44
2022/07/21 11:06:23;;;;;;;4.23;2.83;;;34.80;25.10;;;;;;5012990;28;20417;-45
2022/07/21 11:09:19;;;;;;;4.10;3.43;;;34.60;25.70;;;;;;5013307;28;20476;-44
2022/07/21 11:12:01;;;;;;;4.40;3.60;;;34.50;26.70;;;;;;5011309;28;20421;-44
2022/07/21 11:14:41;;;;;;;4.83;3.67;;;34.50;26.80;;;;;;5012931;28;20412;-44
2022/07/21 11:17:24;;;;;;;4.30;3.60;;;34.30;27.40;;;;;;5012677;28;20963;-44
2022/07/21 11:19:52;;;;;;;8.20;4.03;;;34.20;28.00;;;;;;5012825;28;20454;-44
2022/07/21 11:22:24;;;;;;;4.60;4.00;;;34.20;28.30;;;;;;5012702;28;20468;-44
2022/07/21 11:25:05;;;;;;;4.00;3.43;;;34.30;28.20;;;;;;5012866;28;20403;-44
2022/07/21 11:27:34;;;;;;;5.13;3.27;;;34.30;28.00;;;;;;5012340;28;20451;-44
2022/07/21 11:30:02;;;;;;;5.80;3.90;;;34.30;28.40;;;;;;5012483;28;20444;-44
2022/07/21 11:32:29;;;;;;;4.07;3.67;;;34.40;28.60;;;;;;5012632;28;20412;-45
2022/07/21 11:34:57;;;;;;;6.70;4.60;;;34.50;28.70;;;;;;5012517;28;20448;-44
2022/07/21 11:37:37;;;;;;;4.70;3.90;;;34.50;29.00;;;;;;5012602;28;20409;-44
2022/07/21 11:40:19;;;;;;;4.77;4.27;;;34.50;28.90;;;;;;5012699;28;20738;-45
2022/07/21 11:42:47;;;;;;;5.70;4.03;;;34.40;28.30;;;;;;5012358;28;20460;-44
2022/07/21 11:45:14;;;;;;;4.43;3.80;;;34.40;28.50;;;;;;5012441;28;20463;-44
2022/07/21 11:47:40;;;;;;;4.43;3.70;;;34.30;28.90;;;;;;5012553;28;20408;-44
2022/07/21 11:50:09;;;;;;;4.20;3.67;;;34.20;28.60;;;;;;5012316;28;20433;-45
2022/07/21 11:52:37;;;;;;;5.20;4.10;;;34.10;29.00;;;;;;5011457;28;20919;-44
2022/07/21 11:55:06;;;;;;;6.77;3.73;;;34.00;29.50;;;;;;5012353;28;20423;-45
2022/07/21 11:57:32;;;;;;;12.27;4.67;;;33.90;29.10;;;;;;5012038;28;20453;-44
2022/07/21 11:59:59;;;;;;;6.27;4.30;;;33.90;29.70;;;;;;5012357;28;20528;-44
2022/07/21 12:02:27;;;;;;;5.97;3.60;;;33.90;29.80;;;;;;5012248;28;20959;-45
2022/07/21 12:04:58;;;;;;;5.97;4.60;;;34.10;31.10;;;;;;5012267;28;20555;-44
2022/07/21 12:07:29;;;;;;;6.77;4.47;;;34.30;30.40;;;;;;5011958;28;20417;-45
2022/07/21 12:10:05;;;;;;;5.20;3.50;;;34.30;29.80;;;;;;5012014;28;20936;-45
2022/07/21 12:12:46;;;;;;;5.43;3.37;;;34.30;28.70;;;;;;5012436;28;20418;-44
2022/07/21 12:15:17;;;;;;;3.23;2.90;;;34.00;30.00;;;;;;5012184;28;20397;-44
2022/07/21 12:17:48;;;;;;;6.97;3.80;;;33.80;28.90;;;;;;5011754;28;20552;-44
2022/07/21 12:20:23;;;;;;;4.13;3.47;;;33.60;29.20;;;;;;5011966;28;20936;-44
2022/07/21 12:22:49;;;;;;;3.87;2.90;;;33.40;29.30;;;;;;5012315;28;20451;-44
2022/07/21 12:25:18;;;;;;;4.33;3.17;;;33.20;29.60;;;;;;5012101;28;20410;-45
2022/07/21 12:27:46;;;;;;;6.93;3.87;;;33.20;30.00;;;;;;5011694;28;20814;-45
2022/07/21 12:30:35;;;;;;;5.77;3.97;;;33.00;29.90;;;;;;5012229;28;20408;-44
2022/07/21 12:33:03;;;;;;;4.07;3.30;;;32.90;29.70;;;;;;5011961;28;20892;-44
2022/07/21 12:35:29;;;;;;;6.20;4.10;;;32.70;30.00;;;;;;5011868;28;20414;-44
2022/07/21 12:38:00;;;;;;;5.43;3.87;;;32.70;30.50;;;;;;5012025;28;20415;-44
2022/07/21 12:40:29;;;;;;;5.80;3.63;;;32.60;30.40;;;;;;5012190;28;20362;-44
2022/07/21 12:43:07;;;;;;;4.30;3.67;;;32.50;30.40;;;;;;5011799;28;20507;-44
2022/07/21 12:45:45;;;;;;;4.80;3.80;;;32.40;31.10;;;;;;5011668;28;20405;-45
2022/07/21 12:48:14;;;;;;;5.47;3.70;;;31.80;30.80;;;;;;5011967;28;20426;-44
2022/07/21 12:50:40;;;;;;;3.97;3.57;;;32.20;31.40;;;;;;5011809;28;20453;-45
2022/07/21 12:53:09;;;;;;;6.20;4.13;;;32.10;31.70;;;;;;5012027;28;20463;-44
2022/07/21 12:55:36;;;;;;;5.47;3.00;;;32.10;31.80;;;;;;5011825;28;20405;-44